Time;durP1;ratioP1;P1;durP2;ratioP2;P2;SDS_P1;SDS_P2;PMS_P1;PMS_P2;Temp;Humidity;BMP_temperature;BMP_pressure;BME280_temperature;BME280_humidity;BME280_pressure;Samples;Min_cycle;Max_cycle;Signal;HPM_P1;HPM_P2
2022/01/17 00:00:15;;;;;;;16.17;2.88;;;5.70;99.90;;;;;;5138654;27;20051;-77
2022/01/17 00:02:42;;;;;;;18.63;3.10;;;5.70;99.90;;;;;;5137909;27;20049;-78
2022/01/17 00:05:09;;;;;;;23.55;3.20;;;5.60;99.90;;;;;;5150441;27;20076;-77
2022/01/17 00:07:36;;;;;;;16.20;2.75;;;5.60;99.90;;;;;;5138791;27;20047;-78
2022/01/17 00:10:04;;;;;;;22.98;3.75;;;5.50;99.90;;;;;;5156471;27;20053;-78
2022/01/17 00:12:33;;;;;;;21.27;3.67;;;5.50;99.90;;;;;;5138391;27;20050;-78
2022/01/17 00:14:59;;;;;;;17.17;3.65;;;5.40;99.90;;;;;;5137845;27;20074;-78
2022/01/17 00:17:32;;;;;;;24.17;3.15;;;5.40;99.90;;;;;;5141398;27;20446;-78
2022/01/17 00:20:07;;;;;;;17.33;2.65;;;5.40;99.90;;;;;;5155706;27;20143;-78
2022/01/17 00:22:33;;;;;;;18.00;3.63;;;5.40;99.90;;;;;;5137836;27;20069;-77
2022/01/17 00:24:59;;;;;;;16.77;3.13;;;5.40;99.90;;;;;;5155775;27;20054;-78
2022/01/17 00:27:24;;;;;;;18.95;3.75;;;5.40;99.90;;;;;;5155432;27;20035;-77
2022/01/17 00:29:50;;;;;;;18.65;2.70;;;5.40;99.90;;;;;;5154905;27;20103;-77
2022/01/17 00:32:16;;;;;;;18.33;2.92;;;5.40;99.90;;;;;;5155367;27;20538;-77
2022/01/17 00:34:42;;;;;;;20.33;3.75;;;5.40;99.90;;;;;;5146556;27;20043;-77
2022/01/17 00:37:07;;;;;;;19.38;3.20;;;5.50;99.90;;;;;;5137213;27;20186;-77
2022/01/17 00:39:33;;;;;;;14.35;2.95;;;5.50;99.90;;;;;;5137906;27;20042;-77
2022/01/17 00:41:59;;;;;;;24.77;4.68;;;5.70;99.90;;;;;;5138104;27;20479;-77
2022/01/17 00:44:24;;;;;;;19.17;2.58;;;5.50;99.90;;;;;;5137173;27;20130;-77
2022/01/17 00:46:51;;;;;;;21.95;3.40;;;5.50;99.90;;;;;;5138237;27;20064;-77
2022/01/17 00:49:19;;;;;;;15.70;3.28;;;5.50;99.90;;;;;;5137708;27;20042;-77
2022/01/17 00:51:46;;;;;;;20.58;3.53;;;5.50;99.90;;;;;;5155440;27;20073;-77
2022/01/17 00:54:11;;;;;;;18.67;3.50;;;5.40;99.90;;;;;;5156224;27;20494;-77
2022/01/17 00:56:37;;;;;;;27.15;4.38;;;5.40;99.90;;;;;;5137625;27;20084;-77
2022/01/17 00:59:03;;;;;;;26.63;3.30;;;5.40;99.90;;;;;;5136572;27;20055;-78
2022/01/17 01:01:28;;;;;;;20.15;2.75;;;5.40;99.90;;;;;;5137797;27;20094;-77
2022/01/17 01:03:54;;;;;;;19.48;3.35;;;5.30;99.90;;;;;;5139067;27;20401;-77
2022/01/17 01:06:20;;;;;;;22.83;3.47;;;5.50;99.90;;;;;;5155049;27;20034;-77
2022/01/17 01:08:46;;;;;;;20.33;4.28;;;5.40;99.90;;;;;;5144550;27;20047;-77
2022/01/17 01:11:11;;;;;;;18.83;3.90;;;5.40;99.90;;;;;;5136498;27;20039;-77
2022/01/17 01:13:38;;;;;;;35.28;3.22;;;5.50;99.90;;;;;;5137286;27;20046;-77
2022/01/17 01:18:49;;;;;;;21.73;4.50;;;5.30;99.90;;;;;;5136329;27;20050;-76
2022/01/17 01:29:22;;;;;;;13.63;3.58;;;5.40;99.90;;;;;;5154482;27;20046;-77
2022/01/17 01:31:53;;;;;;;17.95;2.38;;;5.40;99.90;;;;;;5155765;27;20038;-77
2022/01/17 01:34:26;;;;;;;29.33;4.80;;;5.40;99.90;;;;;;5154444;27;20058;-78
2022/01/17 01:36:52;;;;;;;25.75;3.28;;;5.30;99.90;;;;;;5155087;27;20481;-77
2022/01/17 01:39:23;;;;;;;18.17;2.78;;;5.20;99.90;;;;;;5136098;27;20058;-78
2022/01/17 01:41:49;;;;;;;17.65;3.20;;;5.20;99.90;;;;;;5120240;27;20055;-77
2022/01/17 01:44:18;;;;;;;15.93;2.83;;;5.20;99.90;;;;;;5136944;27;20473;-77
2022/01/17 01:46:45;;;;;;;25.15;3.97;;;5.20;99.90;;;;;;5154692;27;20060;-76
2022/01/17 01:49:12;;;;;;;27.65;5.63;;;5.20;99.90;;;;;;5154947;27;20043;-77
2022/01/17 01:51:38;;;;;;;29.88;4.20;;;5.20;99.90;;;;;;5137136;27;20039;-77
2022/01/17 01:54:04;;;;;;;22.80;3.67;;;5.20;99.90;;;;;;5154443;27;20035;-77
2022/01/17 01:56:30;;;;;;;25.33;3.58;;;5.20;99.90;;;;;;5136745;27;20031;-77
2022/01/17 01:58:56;;;;;;;29.80;3.60;;;5.10;99.90;;;;;;5155071;27;20051;-76
2022/01/17 02:01:22;;;;;;;16.75;3.13;;;5.10;99.90;;;;;;5154601;27;20046;-76
2022/01/17 02:03:48;;;;;;;25.00;3.38;;;5.10;99.90;;;;;;5154889;27;20101;-77
2022/01/17 02:06:14;;;;;;;27.58;4.05;;;5.10;99.90;;;;;;5153942;27;20081;-77
2022/01/17 02:08:40;;;;;;;20.13;3.28;;;5.10;99.90;;;;;;5154296;27;20074;-77
2022/01/17 02:11:10;;;;;;;16.45;2.92;;;5.00;99.90;;;;;;5154928;27;20428;-76
2022/01/17 02:13:38;;;;;;;24.27;3.33;;;5.00;99.90;;;;;;5141256;27;20441;-77
2022/01/17 02:16:09;;;;;;;23.63;4.45;;;5.10;99.90;;;;;;5153038;27;20046;-77
2022/01/17 02:18:35;;;;;;;17.45;3.60;;;5.00;99.90;;;;;;5153501;27;20107;-77
2022/01/17 02:21:20;;;;;;;23.42;4.05;;;5.00;99.90;;;;;;5140243;27;20043;-78
2022/01/17 02:23:51;;;;;;;17.20;3.55;;;4.90;99.90;;;;;;5158309;27;20390;-77
2022/01/17 02:26:18;;;;;;;19.73;3.03;;;4.90;99.90;;;;;;5140573;27;20447;-77
2022/01/17 02:28:50;;;;;;;27.65;3.97;;;4.90;99.90;;;;;;5139900;27;20053;-77
2022/01/17 02:31:18;;;;;;;47.22;7.38;;;4.90;99.90;;;;;;5140589;27;20043;-75
2022/01/17 02:33:44;;;;;;;25.55;4.35;;;4.90;99.90;;;;;;5158870;27;20113;-76
2022/01/17 02:36:11;;;;;;;19.05;2.55;;;5.00;99.90;;;;;;5154909;27;20043;-76
2022/01/17 02:38:40;;;;;;;28.92;4.18;;;5.00;99.90;;;;;;5157531;27;20050;-77
2022/01/17 02:41:06;;;;;;;23.70;3.63;;;5.10;99.90;;;;;;5157563;27;20099;-76
2022/01/17 02:43:33;;;;;;;26.67;4.90;;;5.00;99.90;;;;;;5158235;27;20039;-76
2022/01/17 02:48:30;;;;;;;23.13;3.15;;;5.00;99.90;;;;;;5158692;27;20051;-77
2022/01/17 02:50:58;;;;;;;11.95;3.67;;;5.10;99.90;;;;;;5158097;27;20118;-76
2022/01/17 02:53:24;;;;;;;16.90;2.72;;;5.00;99.90;;;;;;5158666;27;20047;-76
2022/01/17 02:55:53;;;;;;;27.23;2.95;;;5.10;99.90;;;;;;5158673;27;20046;-77
2022/01/17 02:58:21;;;;;;;24.00;3.20;;;5.00;99.90;;;;;;5138840;27;20518;-77
2022/01/17 03:00:48;;;;;;;23.27;3.67;;;5.10;99.90;;;;;;5139889;27;20478;-77
2022/01/17 03:03:15;;;;;;;27.48;4.68;;;5.20;99.90;;;;;;5149271;27;20110;-76
2022/01/17 03:05:41;;;;;;;16.20;2.72;;;5.10;99.90;;;;;;5139469;27;20458;-76
2022/01/17 03:08:07;;;;;;;25.02;3.80;;;5.10;99.90;;;;;;5139663;27;20099;-77
2022/01/17 03:13:19;;;;;;;18.05;2.72;;;5.10;99.90;;;;;;5138820;27;20065;-76
2022/01/17 03:15:55;;;;;;;19.88;3.45;;;5.10;99.90;;;;;;5140089;27;20061;-76
2022/01/17 03:18:22;;;;;;;18.73;3.38;;;5.20;99.90;;;;;;5138785;27;20050;-76
2022/01/17 03:20:48;;;;;;;30.05;4.65;;;5.20;99.90;;;;;;5140787;27;20122;-77
2022/01/17 03:23:13;;;;;;;14.48;2.60;;;5.20;99.90;;;;;;5157993;27;20041;-76
2022/01/17 03:25:39;;;;;;;12.65;2.67;;;5.20;99.90;;;;;;5155887;27;20129;-76
2022/01/17 03:28:05;;;;;;;16.55;2.78;;;5.20;99.90;;;;;;5157823;27;20121;-77
2022/01/17 03:30:33;;;;;;;23.60;2.85;;;5.20;99.90;;;;;;5157394;27;20050;-77
2022/01/17 03:33:05;;;;;;;18.90;3.40;;;5.20;99.90;;;;;;5150395;27;20267;-77
2022/01/17 03:35:31;;;;;;;19.70;3.67;;;5.20;99.90;;;;;;5154655;27;20046;-76
2022/01/17 03:37:57;;;;;;;15.88;2.40;;;5.40;99.90;;;;;;5156509;27;20051;-76
2022/01/17 03:40:23;;;;;;;19.50;3.25;;;5.20;99.90;;;;;;5155828;27;20160;-77
2022/01/17 03:42:49;;;;;;;13.35;2.42;;;5.20;99.90;;;;;;5135723;27;20553;-77
2022/01/17 03:45:15;;;;;;;21.83;2.92;;;5.20;99.90;;;;;;5135565;27;20050;-77
2022/01/17 03:47:43;;;;;;;20.13;3.10;;;5.20;99.90;;;;;;5125830;27;20035;-77
2022/01/17 03:50:13;;;;;;;14.18;2.83;;;5.30;99.90;;;;;;5157344;27;20086;-76
2022/01/17 03:52:42;;;;;;;16.67;3.03;;;5.30;99.90;;;;;;5139563;27;20035;-77
2022/01/17 03:55:10;;;;;;;19.05;2.47;;;5.40;99.90;;;;;;5155666;27;20401;-77
2022/01/17 03:57:36;;;;;;;23.50;2.85;;;5.40;99.90;;;;;;5155955;27;20057;-76
2022/01/17 04:00:06;;;;;;;24.45;4.32;;;5.40;99.90;;;;;;5156574;27;20050;-77
2022/01/17 04:02:32;;;;;;;20.27;2.80;;;5.40;99.90;;;;;;5156930;27;20035;-77
2022/01/17 04:04:58;;;;;;;18.60;2.88;;;5.40;99.90;;;;;;5138446;27;20049;-76
2022/01/17 04:07:23;;;;;;;13.98;2.35;;;5.40;99.90;;;;;;5120974;27;20050;-77
2022/01/17 04:09:49;;;;;;;16.92;3.00;;;5.40;99.90;;;;;;5138699;27;20398;-77
2022/01/17 04:12:15;;;;;;;13.63;3.05;;;5.50;99.90;;;;;;5138788;27;20050;-76
2022/01/17 04:14:41;;;;;;;12.23;2.67;;;5.40;99.90;;;;;;5137808;27;20445;-77
2022/01/17 04:17:07;;;;;;;19.20;2.65;;;5.40;99.90;;;;;;5138520;27;20390;-77
2022/01/17 04:19:33;;;;;;;29.15;4.22;;;5.30;99.90;;;;;;5156534;27;20049;-76
2022/01/17 04:22:00;;;;;;;21.25;2.88;;;5.30;99.90;;;;;;5155990;27;20039;-77
2022/01/17 04:24:26;;;;;;;12.50;2.53;;;5.50;99.90;;;;;;5138209;27;20482;-76
2022/01/17 04:26:51;;;;;;;14.90;2.80;;;5.30;99.90;;;;;;5138109;27;20047;-77
2022/01/17 04:29:19;;;;;;;13.20;2.90;;;5.40;99.90;;;;;;5137277;27;20043;-77
2022/01/17 04:31:45;;;;;;;15.95;2.42;;;5.40;99.90;;;;;;5138176;27;20039;-77
2022/01/17 04:34:10;;;;;;;27.88;4.40;;;5.40;99.90;;;;;;5142858;27;20046;-76
2022/01/17 04:36:36;;;;;;;26.00;3.55;;;5.50;99.90;;;;;;5154399;27;20464;-77
2022/01/17 04:39:02;;;;;;;17.95;3.20;;;5.50;99.90;;;;;;5155302;27;20102;-76
2022/01/17 04:41:37;;;;;;;20.52;2.63;;;5.50;99.90;;;;;;5155115;27;20039;-77
2022/01/17 04:46:48;;;;;;;17.00;3.25;;;5.60;99.90;;;;;;5156517;27;20042;-75
2022/01/17 04:49:13;;;;;;;17.63;2.42;;;5.70;99.90;;;;;;5141010;27;20114;-76
2022/01/17 04:51:39;;;;;;;12.45;2.58;;;5.80;99.90;;;;;;5154861;27;20078;-76
2022/01/17 04:56:49;;;;;;;18.75;2.92;;;5.90;99.90;;;;;;5154443;27;20557;-77
2022/01/17 04:59:14;;;;;;;22.63;3.33;;;5.90;99.90;;;;;;5154754;27;20050;-74
2022/01/17 05:01:40;;;;;;;21.58;2.70;;;6.00;99.90;;;;;;5156258;27;20043;-77
2022/01/17 05:04:06;;;;;;;17.10;3.08;;;6.00;99.90;;;;;;5148245;27;20043;-76
2022/01/17 05:06:32;;;;;;;20.20;3.45;;;6.10;99.90;;;;;;5155878;27;20045;-77
2022/01/17 05:08:58;;;;;;;21.45;3.17;;;6.10;99.90;;;;;;5154631;27;20050;-76
2022/01/17 05:11:29;;;;;;;19.70;3.83;;;6.20;99.90;;;;;;5154371;27;20082;-75
2022/01/17 05:13:54;;;;;;;19.40;3.22;;;6.20;99.90;;;;;;5155004;27;20080;-76
2022/01/17 05:16:21;;;;;;;14.73;3.22;;;6.20;99.90;;;;;;5147395;27;20046;-76
2022/01/17 05:21:15;;;;;;;21.35;3.88;;;6.20;99.90;;;;;;5137068;27;20043;-77
2022/01/17 05:23:42;;;;;;;16.88;3.40;;;6.20;99.90;;;;;;5137240;27;20516;-77
2022/01/17 05:26:08;;;;;;;25.02;3.67;;;6.20;99.90;;;;;;5155047;27;20077;-76
2022/01/17 05:28:34;;;;;;;20.77;3.75;;;6.30;99.90;;;;;;5137325;27;20081;-77
2022/01/17 05:31:00;;;;;;;23.35;5.35;;;6.30;99.90;;;;;;5137077;27;20077;-75
2022/01/17 05:33:26;;;;;;;24.08;3.95;;;6.30;99.90;;;;;;5154638;27;20081;-76
2022/01/17 05:35:51;;;;;;;17.67;3.53;;;6.30;99.90;;;;;;5140732;27;20042;-74
2022/01/17 05:38:17;;;;;;;27.98;4.63;;;6.20;99.90;;;;;;5136946;27;20564;-76
2022/01/17 05:40:43;;;;;;;14.00;2.83;;;6.30;99.90;;;;;;5136215;27;20079;-75
2022/01/17 05:43:09;;;;;;;19.55;3.65;;;6.40;99.90;;;;;;5149745;27;20060;-75
2022/01/17 05:45:34;;;;;;;25.63;4.05;;;6.30;99.90;;;;;;5154655;27;20053;-75
2022/01/17 05:48:00;;;;;;;19.52;3.13;;;6.30;99.90;;;;;;5136750;27;20484;-75
2022/01/17 05:50:26;;;;;;;19.38;4.25;;;6.30;99.90;;;;;;5155111;27;20042;-75
2022/01/17 05:52:52;;;;;;;27.67;5.82;;;6.30;99.90;;;;;;5153028;27;20583;-75
2022/01/17 05:55:18;;;;;;;23.77;4.57;;;6.30;99.90;;;;;;5136698;27;20500;-76
2022/01/17 05:57:44;;;;;;;19.85;3.95;;;6.40;99.90;;;;;;5136518;27;20158;-76
2022/01/17 06:00:13;;;;;;;23.45;4.40;;;6.30;99.90;;;;;;5135912;27;20517;-76
2022/01/17 06:02:38;;;;;;;21.08;3.65;;;6.30;99.90;;;;;;5154849;27;20077;-76
2022/01/17 06:05:05;;;;;;;28.55;4.15;;;6.30;99.90;;;;;;5155048;27;20074;-77
2022/01/17 06:07:30;;;;;;;18.45;3.60;;;6.30;99.90;;;;;;5154353;27;20039;-76
2022/01/17 06:09:56;;;;;;;25.98;4.93;;;6.30;99.90;;;;;;5155277;27;20043;-75
2022/01/17 06:12:22;;;;;;;22.25;3.72;;;6.40;99.90;;;;;;5136663;27;20039;-77
2022/01/17 06:14:48;;;;;;;19.77;3.75;;;6.40;99.90;;;;;;5135831;27;20072;-76
2022/01/17 06:17:13;;;;;;;21.83;3.85;;;6.40;99.90;;;;;;5119613;27;20042;-77
2022/01/17 06:19:39;;;;;;;21.70;3.88;;;6.40;99.90;;;;;;5126641;27;20405;-76
2022/01/17 06:22:07;;;;;;;24.17;4.50;;;6.40;99.90;;;;;;5152586;27;20043;-75
2022/01/17 06:24:33;;;;;;;25.25;3.85;;;6.30;99.90;;;;;;5154053;27;20367;-75
2022/01/17 06:26:59;;;;;;;23.08;4.07;;;6.40;99.90;;;;;;5155446;27;20134;-75
2022/01/17 06:29:25;;;;;;;23.83;4.63;;;6.40;99.90;;;;;;5152782;27;20053;-76
2022/01/17 06:31:51;;;;;;;30.05;4.22;;;6.40;99.90;;;;;;5153629;27;20531;-76
2022/01/17 06:34:17;;;;;;;29.90;4.80;;;6.40;99.90;;;;;;5131729;27;20050;-75
2022/01/17 06:36:42;;;;;;;25.02;4.63;;;6.40;99.90;;;;;;5135622;27;20117;-76
2022/01/17 06:39:10;;;;;;;25.58;4.75;;;6.40;99.90;;;;;;5154864;27;20043;-76
2022/01/17 06:41:37;;;;;;;26.23;5.13;;;6.40;99.90;;;;;;5154670;27;20051;-76
2022/01/17 06:44:03;;;;;;;19.33;4.25;;;6.40;99.90;;;;;;5141041;27;20050;-76
2022/01/17 06:46:36;;;;;;;20.77;3.95;;;6.40;99.90;;;;;;5154781;27;20051;-76
2022/01/17 06:49:02;;;;;;;34.30;5.03;;;6.30;99.90;;;;;;5138884;27;20978;-76
2022/01/17 06:51:28;;;;;;;28.73;5.18;;;6.40;99.90;;;;;;5154248;27;20413;-75
2022/01/17 06:53:54;;;;;;;31.08;5.57;;;6.40;99.90;;;;;;5135456;27;20050;-76
2022/01/17 06:56:20;;;;;;;21.27;4.38;;;6.40;99.90;;;;;;5152554;27;20043;-76
2022/01/17 06:58:46;;;;;;;23.42;4.75;;;6.40;99.90;;;;;;5135645;27;20050;-76
2022/01/17 07:01:13;;;;;;;21.13;4.05;;;6.40;99.90;;;;;;5135888;27;20131;-74
2022/01/17 07:03:40;;;;;;;24.05;4.78;;;6.50;99.90;;;;;;5153553;27;20099;-74
2022/01/17 07:06:06;;;;;;;24.30;3.58;;;6.40;99.90;;;;;;5154735;27;20042;-76
2022/01/17 07:08:31;;;;;;;22.52;4.93;;;6.40;99.90;;;;;;5157378;27;20069;-76
2022/01/17 07:10:58;;;;;;;26.95;4.90;;;6.40;99.90;;;;;;5138699;27;20473;-76
2022/01/17 07:13:23;;;;;;;31.08;3.65;;;6.40;99.90;;;;;;5151345;27;20046;-77
2022/01/17 07:15:49;;;;;;;25.90;5.28;;;6.40;99.90;;;;;;5139505;27;20470;-77
2022/01/17 07:18:15;;;;;;;30.20;4.97;;;6.40;99.90;;;;;;5138825;27;20042;-76
2022/01/17 07:20:41;;;;;;;28.92;4.70;;;6.40;99.90;;;;;;5140766;27;20047;-76
2022/01/17 07:23:06;;;;;;;29.40;4.13;;;6.40;99.90;;;;;;5139303;27;20065;-76
2022/01/17 07:25:32;;;;;;;30.00;4.88;;;6.40;99.90;;;;;;5138400;27;20083;-75
2022/01/17 07:27:58;;;;;;;28.10;4.80;;;6.40;99.90;;;;;;5122077;27;20047;-76
2022/01/17 07:30:24;;;;;;;29.95;4.25;;;6.40;99.90;;;;;;5139111;27;20077;-76
2022/01/17 07:32:50;;;;;;;31.17;3.97;;;6.40;99.90;;;;;;5156953;27;20586;-76
2022/01/17 07:35:16;;;;;;;31.85;4.88;;;6.40;99.90;;;;;;5139208;27;20050;-76
2022/01/17 07:37:42;;;;;;;36.90;6.20;;;6.40;99.90;;;;;;5157616;27;20038;-76
2022/01/17 07:40:09;;;;;;;29.77;5.10;;;6.40;99.90;;;;;;5156722;27;20478;-77
2022/01/17 07:42:35;;;;;;;37.63;5.05;;;6.40;99.90;;;;;;5139794;27;20100;-76
2022/01/17 07:45:09;;;;;;;27.70;5.20;;;6.40;99.90;;;;;;5157207;27;20046;-76
2022/01/17 07:47:43;;;;;;;28.40;4.45;;;6.40;99.90;;;;;;5138879;27;20129;-77
2022/01/17 07:50:15;;;;;;;34.55;5.55;;;6.40;99.90;;;;;;5131188;27;20062;-77
2022/01/17 07:52:42;;;;;;;27.88;5.10;;;6.40;99.90;;;;;;5134767;27;20431;-77
2022/01/17 07:55:09;;;;;;;26.65;3.53;;;6.40;99.90;;;;;;5136746;27;20047;-76
2022/01/17 07:57:36;;;;;;;37.40;5.32;;;6.50;99.90;;;;;;5147040;27;20078;-76
2022/01/17 08:00:07;;;;;;;28.98;4.20;;;6.50;99.90;;;;;;5155081;27;20063;-77
2022/01/17 08:02:34;;;;;;;32.90;5.03;;;6.50;99.90;;;;;;5156087;27;20389;-76
2022/01/17 08:05:00;;;;;;;27.83;4.20;;;6.60;99.90;;;;;;5145390;27;20122;-76
2022/01/17 08:07:26;;;;;;;34.85;5.85;;;6.60;99.90;;;;;;5156133;27;20405;-76
2022/01/17 08:09:52;;;;;;;34.22;5.00;;;6.60;99.90;;;;;;5121611;27;20121;-76
2022/01/17 08:12:20;;;;;;;29.10;4.97;;;6.70;99.90;;;;;;5121476;27;20050;-76
2022/01/17 08:14:46;;;;;;;37.70;5.25;;;6.70;99.90;;;;;;5137518;27;20049;-76
2022/01/17 08:17:12;;;;;;;37.03;4.95;;;6.70;99.90;;;;;;5138588;27;20121;-75
2022/01/17 08:19:38;;;;;;;29.92;5.70;;;6.80;99.90;;;;;;5145257;27;20053;-76
2022/01/17 08:22:06;;;;;;;42.22;5.45;;;6.80;99.90;;;;;;5154651;27;20130;-76
2022/01/17 08:24:34;;;;;;;34.50;4.63;;;6.80;99.90;;;;;;5156578;27;20096;-76
2022/01/17 08:27:00;;;;;;;37.13;5.28;;;6.90;99.90;;;;;;5155348;27;20054;-75
2022/01/17 08:29:26;;;;;;;27.40;4.75;;;6.90;99.90;;;;;;5154257;27;20607;-76
2022/01/17 08:31:53;;;;;;;34.92;4.80;;;6.90;99.90;;;;;;5155713;27;20050;-76
2022/01/17 08:34:19;;;;;;;44.35;7.28;;;7.00;99.90;;;;;;5155376;27;20050;-77
2022/01/17 08:36:45;;;;;;;31.65;6.38;;;7.00;99.90;;;;;;5155852;27;20034;-73
2022/01/17 08:39:11;;;;;;;34.88;6.32;;;7.00;99.90;;;;;;5155127;27;20075;-76
2022/01/17 08:41:42;;;;;;;25.02;4.80;;;7.10;99.90;;;;;;5155646;27;20043;-76
2022/01/17 08:44:09;;;;;;;30.17;4.72;;;7.20;99.90;;;;;;5143790;27;20517;-76
2022/01/17 08:46:34;;;;;;;36.22;6.07;;;7.20;99.90;;;;;;5120508;27;20096;-77
2022/01/17 08:49:00;;;;;;;38.88;6.03;;;7.30;99.90;;;;;;5155071;27;20042;-76
2022/01/17 08:51:26;;;;;;;31.83;5.18;;;7.30;99.90;;;;;;5156136;27;20043;-76
2022/01/17 08:53:52;;;;;;;29.42;5.18;;;7.40;99.90;;;;;;5156381;27;20074;-77
2022/01/17 08:56:17;;;;;;;31.92;6.45;;;7.40;99.90;;;;;;5154210;27;20405;-76
2022/01/17 08:58:43;;;;;;;35.88;5.28;;;7.50;99.90;;;;;;5154387;27;20058;-76
2022/01/17 09:01:13;;;;;;;28.58;4.78;;;7.50;99.90;;;;;;5155624;27;20078;-76
2022/01/17 09:03:40;;;;;;;28.70;4.85;;;7.60;99.90;;;;;;5153686;27;20051;-77
2022/01/17 09:06:07;;;;;;;36.45;5.35;;;7.70;99.90;;;;;;5155565;27;20035;-77
2022/01/17 09:08:33;;;;;;;42.55;6.60;;;7.80;99.90;;;;;;5137220;27;20104;-75
2022/01/17 09:10:59;;;;;;;38.42;7.55;;;7.80;99.90;;;;;;5136436;27;20490;-77
2022/01/17 09:13:25;;;;;;;29.65;5.25;;;7.90;99.90;;;;;;5137207;27;20046;-77
2022/01/17 09:15:52;;;;;;;44.47;5.55;;;7.90;99.90;;;;;;5137230;27;20094;-75
2022/01/17 09:18:20;;;;;;;25.75;5.03;;;8.00;99.90;;;;;;5136284;27;20081;-77
2022/01/17 09:20:47;;;;;;;31.20;6.22;;;8.00;99.90;;;;;;5151130;27;20073;-76
2022/01/17 09:23:13;;;;;;;27.52;5.38;;;8.10;99.90;;;;;;5154319;27;20423;-75
2022/01/17 09:25:39;;;;;;;33.08;5.75;;;8.10;99.90;;;;;;5153557;27;20050;-77
2022/01/17 09:28:05;;;;;;;26.42;5.22;;;8.20;99.90;;;;;;5139622;27;20482;-75
2022/01/17 09:30:31;;;;;;;30.83;6.47;;;8.20;99.90;;;;;;5135974;27;20047;-76
2022/01/17 09:32:57;;;;;;;30.08;5.22;;;8.30;99.90;;;;;;5136846;27;20039;-77
2022/01/17 09:35:24;;;;;;;40.05;7.07;;;8.30;99.90;;;;;;5150687;27;20062;-77
2022/01/17 09:37:51;;;;;;;26.77;5.15;;;8.40;99.90;;;;;;5135983;27;20547;-77
2022/01/17 09:40:19;;;;;;;38.88;7.85;;;8.30;99.90;;;;;;5154422;27;20038;-75
2022/01/17 09:42:45;;;;;;;37.28;7.05;;;8.40;99.90;;;;;;5155185;27;20731;-76
2022/01/17 09:45:15;;;;;;;35.88;6.15;;;8.30;99.90;;;;;;5136224;27;20030;-76
2022/01/17 09:47:42;;;;;;;42.58;6.60;;;8.40;99.90;;;;;;5136527;27;20035;-77
2022/01/17 09:50:12;;;;;;;42.03;5.85;;;8.40;99.90;;;;;;5147992;27;20051;-77
2022/01/17 09:52:51;;;;;;;52.72;8.70;;;8.40;99.90;;;;;;5152594;27;20039;-76
2022/01/17 09:55:23;;;;;;;36.05;6.13;;;8.50;99.90;;;;;;5153980;27;20047;-77
2022/01/17 09:58:09;;;;;;;30.02;5.93;;;8.50;99.90;;;;;;5153782;27;20051;-77
2022/01/17 10:00:41;;;;;;;41.50;5.85;;;8.60;99.90;;;;;;5152895;27;20478;-76
2022/01/17 10:03:13;;;;;;;38.95;5.90;;;8.60;99.90;;;;;;5155311;27;20086;-77
2022/01/17 10:05:39;;;;;;;38.60;5.97;;;8.70;99.90;;;;;;5137056;27;20043;-77
2022/01/17 10:08:16;;;;;;;39.45;5.35;;;8.80;99.90;;;;;;5136490;27;20109;-75
2022/01/17 10:10:56;;;;;;;33.55;5.38;;;8.80;99.90;;;;;;5136555;27;20074;-76
2022/01/17 10:13:30;;;;;;;34.10;6.05;;;8.90;99.90;;;;;;5136421;27;20047;-77
2022/01/17 10:16:08;;;;;;;43.60;7.03;;;8.90;99.90;;;;;;5154934;27;20055;-77
2022/01/17 10:18:48;;;;;;;47.72;7.50;;;8.90;99.90;;;;;;5154421;27;20050;-77
2022/01/17 10:21:40;;;;;;;35.70;5.70;;;9.00;99.90;;;;;;5135846;27;20038;-76
2022/01/17 10:37:15;;;;;;;26.98;5.15;;;9.00;99.90;;;;;;5154654;27;20058;-76
2022/01/17 10:40:15;;;;;;;34.65;6.80;;;9.10;99.90;;;;;;5153267;27;20051;-77
2022/01/17 10:42:46;;;;;;;33.25;5.63;;;9.20;99.90;;;;;;5146186;27;20050;-75
2022/01/17 10:45:25;;;;;;;36.85;8.18;;;9.20;99.90;;;;;;5123650;27;20501;-76
2022/01/17 10:47:53;;;;;;;46.83;9.35;;;9.20;99.90;;;;;;5139246;27;20043;-76
2022/01/17 10:50:23;;;;;;;40.28;7.00;;;9.20;99.90;;;;;;5152785;27;20058;-77
2022/01/17 10:52:53;;;;;;;40.33;9.07;;;9.20;99.90;;;;;;5136115;27;20051;-77
2022/01/17 10:55:26;;;;;;;41.78;7.65;;;9.20;99.90;;;;;;5122353;27;20413;-77
2022/01/17 10:57:55;;;;;;;47.25;7.72;;;9.20;99.90;;;;;;5139618;27;20064;-77
2022/01/17 11:00:27;;;;;;;57.63;8.90;;;9.20;99.90;;;;;;5140031;27;20034;-77
2022/01/17 11:02:55;;;;;;;41.33;7.82;;;9.20;99.90;;;;;;5138492;27;20053;-76
2022/01/17 11:05:23;;;;;;;33.88;6.00;;;9.20;99.90;;;;;;5122253;27;20502;-77
2022/01/17 11:07:56;;;;;;;51.05;8.57;;;9.30;99.90;;;;;;5139150;27;20125;-77
2022/01/17 11:10:26;;;;;;;53.47;7.88;;;9.30;99.90;;;;;;5138547;27;20053;-76
2022/01/17 11:12:54;;;;;;;48.78;9.60;;;9.20;99.90;;;;;;5158320;27;20522;-77
2022/01/17 11:15:21;;;;;;;48.38;8.00;;;9.20;99.90;;;;;;5139852;27;20042;-76
2022/01/17 11:17:51;;;;;;;43.85;7.30;;;9.20;99.90;;;;;;5138958;27;20389;-76
2022/01/17 11:20:23;;;;;;;51.92;9.93;;;9.30;99.90;;;;;;5133980;27;20523;-78
2022/01/17 11:22:51;;;;;;;45.17;8.05;;;9.30;99.90;;;;;;5149057;27;20090;-76
2022/01/17 11:25:33;;;;;;;42.60;7.50;;;9.30;99.90;;;;;;5135441;27;20061;-76
2022/01/17 11:28:01;;;;;;;48.47;8.35;;;9.40;99.90;;;;;;5118778;27;20076;-77
2022/01/17 11:30:28;;;;;;;46.75;8.27;;;9.40;99.90;;;;;;5136436;27;20051;-77
2022/01/17 11:32:55;;;;;;;51.17;8.38;;;9.40;99.90;;;;;;5118800;27;20096;-77
2022/01/17 11:35:23;;;;;;;45.88;9.10;;;9.50;99.90;;;;;;5148477;27;20122;-77
2022/01/17 11:37:56;;;;;;;45.58;8.82;;;9.50;99.90;;;;;;5155803;27;20455;-77
2022/01/17 11:40:36;;;;;;;51.05;8.75;;;9.60;99.90;;;;;;5156724;27;20408;-77
2022/01/17 11:43:32;;;;;;;42.15;6.53;;;9.60;99.90;;;;;;5157731;27;20481;-76
2022/01/17 11:46:17;;;;;;;56.97;8.80;;;9.60;99.90;;;;;;5138536;27;20091;-77
2022/01/17 11:48:53;;;;;;;47.53;9.38;;;9.60;99.90;;;;;;5156133;27;20447;-77
2022/01/17 11:51:19;;;;;;;25.75;6.93;;;9.60;99.90;;;;;;5156134;27;20130;-77
2022/01/17 11:53:48;;;;;;;43.97;8.60;;;9.70;99.90;;;;;;5139336;27;20082;-77
2022/01/17 11:56:33;;;;;;;53.03;9.05;;;9.70;99.90;;;;;;5138754;27;20043;-77
2022/01/17 11:58:59;;;;;;;44.28;7.25;;;9.80;99.90;;;;;;5137533;27;20695;-77
2022/01/17 12:01:25;;;;;;;48.03;9.50;;;9.80;99.90;;;;;;5157296;27;20046;-76
2022/01/17 12:03:56;;;;;;;46.60;8.68;;;9.80;99.90;;;;;;5156959;27;20111;-77
2022/01/17 12:06:32;;;;;;;47.38;9.63;;;9.90;99.90;;;;;;5120733;27;20152;-77
2022/01/17 12:09:30;;;;;;;46.28;9.00;;;9.90;99.90;;;;;;5138747;27;20573;-76
2022/01/17 12:12:08;;;;;;;53.03;9.50;;;9.80;99.90;;;;;;5083541;27;20061;-78
2022/01/17 12:14:40;;;;;;;41.63;8.38;;;9.80;99.90;;;;;;5120918;27;20394;-77
2022/01/17 12:17:25;;;;;;;46.28;7.68;;;9.70;99.90;;;;;;5138729;27;20129;-77
2022/01/17 12:20:06;;;;;;;57.58;8.05;;;9.80;99.90;;;;;;5145965;27;20057;-78
2022/01/17 12:22:47;;;;;;;60.33;12.32;;;9.80;99.90;;;;;;5155668;27;20058;-77
2022/01/17 12:25:24;;;;;;;40.20;7.70;;;9.80;99.90;;;;;;5155773;27;20050;-77
2022/01/17 12:27:51;;;;;;;53.70;9.48;;;9.90;99.90;;;;;;5137391;27;20042;-77
2022/01/17 12:30:18;;;;;;;61.53;10.40;;;9.90;99.90;;;;;;5156784;27;20114;-77
2022/01/17 12:32:48;;;;;;;47.38;8.43;;;10.00;99.90;;;;;;5156896;27;20412;-77
2022/01/17 12:35:19;;;;;;;50.30;10.05;;;10.00;99.90;;;;;;5155670;27;20051;-77
2022/01/17 12:37:56;;;;;;;50.95;8.60;;;9.90;99.90;;;;;;5155778;27;20050;-77
2022/01/17 12:40:29;;;;;;;53.90;8.50;;;9.90;99.90;;;;;;5155640;27;20046;-77
2022/01/17 12:42:58;;;;;;;32.97;7.72;;;9.80;99.90;;;;;;5120905;27;20481;-77
2022/01/17 12:45:33;;;;;;;55.00;8.90;;;9.80;99.90;;;;;;5138041;27;20080;-77
2022/01/17 12:48:02;;;;;;;49.70;10.35;;;9.80;99.90;;;;;;5137073;27;20060;-76
2022/01/17 12:50:32;;;;;;;58.05;9.73;;;9.80;99.90;;;;;;5152060;27;20046;-77
2022/01/17 12:53:00;;;;;;;49.25;9.10;;;9.80;99.90;;;;;;5155190;27;20125;-77
2022/01/17 12:55:34;;;;;;;48.55;7.85;;;9.80;99.90;;;;;;5154192;27;20051;-76
2022/01/17 12:58:00;;;;;;;53.15;9.20;;;9.80;99.90;;;;;;5154648;27;20055;-77
2022/01/17 13:00:27;;;;;;;54.97;9.55;;;9.70;99.90;;;;;;5155244;27;20129;-77
2022/01/17 13:02:54;;;;;;;66.55;14.57;;;9.70;99.90;;;;;;5153327;27;20051;-77
2022/01/17 13:05:27;;;;;;;33.03;8.02;;;9.70;99.90;;;;;;5141178;27;20074;-76
2022/01/17 13:07:53;;;;;;;47.80;7.95;;;9.70;99.90;;;;;;5156255;27;20039;-76
2022/01/17 13:10:20;;;;;;;47.65;7.50;;;9.60;99.90;;;;;;5136607;27;20054;-76
2022/01/17 13:12:48;;;;;;;45.63;9.75;;;9.60;99.90;;;;;;5137276;27;20125;-77
2022/01/17 13:15:14;;;;;;;56.85;9.73;;;9.60;99.90;;;;;;5155918;27;20047;-77
2022/01/17 13:17:40;;;;;;;57.47;10.52;;;9.60;99.90;;;;;;5136571;27;20046;-77
2022/01/17 13:20:08;;;;;;;53.45;9.30;;;9.60;99.90;;;;;;5147944;27;20057;-76
2022/01/17 13:22:51;;;;;;;51.40;8.43;;;9.60;99.90;;;;;;5153652;27;20047;-77
2022/01/17 13:25:18;;;;;;;58.38;10.05;;;9.60;99.90;;;;;;5154697;27;20375;-76
2022/01/17 13:27:44;;;;;;;41.38;8.05;;;9.50;99.90;;;;;;5155698;27;20054;-77